EDT,Max TemperatureF,Mean TemperatureF,Min TemperatureF,Max Dew PointF,MeanDew PointF,Min DewpointF,Max Humidity, Mean Humidity, Min Humidity, Max Sea Level PressureIn, Mean Sea Level PressureIn, Min Sea Level PressureIn, Max VisibilityMiles, Mean VisibilityMiles, Min VisibilityMiles, Max Wind SpeedMPH, Mean Wind SpeedMPH, Max Gust SpeedMPH,PrecipitationIn, CloudCover, Events, WindDirDegrees
2011-10-1,50,44,39,46,42,37,100,90,81,29.94,29.84,29.76,10,8,2,13,5,23,0.29,8,Rain,264
2011-10-2,44,40,37,39,37,34,96,89,81,29.95,29.89,29.85,10,9,4,10,6,,0.33,8,Rain,315
2011-10-3,55,46,39,46,42,39,100,92,69,30.12,29.98,29.90,10,4,0,8,2,21,0.05,8,Fog-Rain,221
2011-10-4,61,52,44,50,46,43,100,91,69,30.23,30.15,30.10,10,5,0,14,2,18,0.02,7,Fog-Rain,286
2011-10-5,71,57,44,49,46,44,100,80,39,30.35,30.25,30.20,10,9,2,10,6,,0.01,1,,259
2011-10-6,69,50,33,45,38,30,100,82,37,30.44,30.39,30.33,10,6,0,7,4,,0.00,1,Fog,11
2011-10-7,73,54,35,46,40,32,97,74,24,30.51,30.46,30.39,10,9,2,6,3,,0.00,0,,18
2011-10-8,78,58,39,51,45,38,97,76,31,30.57,30.50,30.44,10,9,7,5,1,,0.00,0,,22
2011-10-9,80,60,42,52,47,41,100,82,29,30.53,30.46,30.38,10,5,0,7,1,,0.01,1,Fog,354
2011-10-10,71,57,43,57,47,42,100,88,51,30.39,30.34,30.25,10,6,0,7,1,,0.01,1,Fog,5
2011-10-11,70,58,46,55,51,45,100,83,53,30.25,30.19,30.12,10,8,0,8,3,,0.00,1,Fog,35
2011-10-12,57,54,51,55,52,49,100,96,92,30.11,29.99,29.88,10,6,1,15,7,,0.47,8,Rain,57
2011-10-13,61,56,53,59,55,52,100,95,90,29.87,29.73,29.51,10,8,2,8,5,,0.04,8,Rain,52
2011-10-14,60,53,46,59,52,41,100,91,67,29.57,29.47,29.42,10,7,1,21,8,36,0.41,7,Rain,220
2011-10-15,55,48,42,42,37,31,89,66,45,29.83,29.64,29.57,10,9,2,26,13,40,0.12,7,Rain-Thunderstorm,236
2011-10-16,60,52,45,49,40,32,96,67,42,29.93,29.81,29.68,10,9,2,15,9,22,0.31,6,Rain,232
2011-10-17,62,52,44,48,35,21,94,60,21,29.82,29.77,29.73,10,10,10,25,9,36,0.01,2,,241
2011-10-18,64,56,48,43,35,28,69,49,30,29.87,29.82,29.77,10,10,10,9,5,,0.00,5,,194
2011-10-19,63,57,51,56,50,38,100,81,58,29.75,29.50,29.25,10,8,2,20,10,28,0.43,7,Rain,68
2011-10-20,53,47,41,52,41,35,96,85,63,29.68,29.42,29.25,10,8,2,17,11,33,0.38,8,Rain-Thunderstorm,214
2011-10-21,46,43,41,41,39,37,93,86,81,30.09,29.89,29.67,10,9,3,14,10,23,0.04,8,Rain,240
2011-10-22,52,44,36,41,38,33,89,79,56,30.14,30.10,30.06,10,10,10,8,4,,0.00,7,,258
2011-10-23,59,44,30,39,34,28,100,83,40,30.19,30.12,30.08,10,5,0,10,1,16,0.00,2,Fog,226
2011-10-24,55,44,34,48,41,32,96,86,62,30.10,30.04,29.98,10,9,2,9,3,18,0.03,5,Rain,229
2011-10-25,60,49,39,43,37,35,93,67,42,30.21,30.13,30.02,10,10,6,10,6,17,0.00,1,,241
2011-10-26,59,48,39,52,46,36,96,85,72,29.99,29.85,29.73,10,9,6,15,6,21,0.06,7,Rain,222
2011-10-27,53,42,30,52,43,28,100,92,85,30.11,29.75,29.67,10,7,0,10,4,17,0.55,8,Fog-Rain,359
2011-10-28,44,33,24,31,26,23,100,84,47,30.28,30.19,30.08,10,7,0,7,2,,0.00,2,Fog,358
2011-10-29,36,33,30,32,31,28,96,91,76,30.18,30.08,30.01,10,3,0,8,4,,0.38,8,Fog-Snow,36
2011-10-30,37,30,25,31,27,24,100,92,81,30.35,30.24,30.09,10,5,0,8,3,,0.00,3,Fog,264
2011-10-31,46,34,24,34,28,23,100,86,58,30.34,30.28,30.22,10,6,0,7,5,,0.00,4,Fog-Rain,33